sensor_id;sensor_type;location;lat;lon;timestamp;pressure;altitude;pressure_sealevel;temperature;humidity
52307;BME280;38249;48.920;12.882;2023-01-26T00:01:09;97479.28;;;2.73;51.19
52307;BME280;38249;48.920;12.882;2023-01-26T00:03:37;97480.38;;;2.72;50.38
52307;BME280;38249;48.920;12.882;2023-01-26T00:06:04;97473.34;;;2.61;50.59
52307;BME280;38249;48.920;12.882;2023-01-26T00:08:34;97471.84;;;2.75;50.82
52307;BME280;38249;48.920;12.882;2023-01-26T00:11:02;97469.16;;;2.70;50.56
52307;BME280;38249;48.920;12.882;2023-01-26T00:13:29;97466.41;;;2.60;50.44
52307;BME280;38249;48.920;12.882;2023-01-26T00:15:55;97468.78;;;2.56;50.24
52307;BME280;38249;48.920;12.882;2023-01-26T00:18:22;97465.06;;;2.57;49.87
52307;BME280;38249;48.920;12.882;2023-01-26T00:20:54;97455.16;;;2.80;50.15
52307;BME280;38249;48.920;12.882;2023-01-26T00:23:20;97453.16;;;2.65;50.12
52307;BME280;38249;48.920;12.882;2023-01-26T00:25:47;97449.47;;;2.66;50.86
52307;BME280;38249;48.920;12.882;2023-01-26T00:28:13;97447.59;;;2.66;50.44
52307;BME280;38249;48.920;12.882;2023-01-26T00:30:39;97441.78;;;2.69;50.12
52307;BME280;38249;48.920;12.882;2023-01-26T00:33:06;97451.88;;;2.67;50.45
52307;BME280;38249;48.920;12.882;2023-01-26T00:35:32;97439.38;;;2.68;50.20
52307;BME280;38249;48.920;12.882;2023-01-26T00:38:00;97442.66;;;2.80;50.03
52307;BME280;38249;48.920;12.882;2023-01-26T00:40:26;97443.84;;;2.62;49.40
52307;BME280;38249;48.920;12.882;2023-01-26T00:42:53;97440.34;;;2.57;49.92
52307;BME280;38249;48.920;12.882;2023-01-26T00:45:19;97437.41;;;2.58;49.51
52307;BME280;38249;48.920;12.882;2023-01-26T00:47:46;97437.47;;;2.63;49.39
52307;BME280;38249;48.920;12.882;2023-01-26T00:50:13;97443.00;;;2.57;49.50
52307;BME280;38249;48.920;12.882;2023-01-26T00:52:39;97450.97;;;2.57;49.62
52307;BME280;38249;48.920;12.882;2023-01-26T00:55:07;97449.22;;;2.67;49.99
52307;BME280;38249;48.920;12.882;2023-01-26T00:57:34;97436.63;;;2.58;49.20
52307;BME280;38249;48.920;12.882;2023-01-26T01:00:00;97441.34;;;2.50;49.86
52307;BME280;38249;48.920;12.882;2023-01-26T01:02:27;97433.59;;;2.49;49.75
52307;BME280;38249;48.920;12.882;2023-01-26T01:04:53;97428.28;;;2.49;49.62
52307;BME280;38249;48.920;12.882;2023-01-26T01:07:20;97421.13;;;2.49;49.27
52307;BME280;38249;48.920;12.882;2023-01-26T01:09:46;97425.25;;;2.35;50.39
52307;BME280;38249;48.920;12.882;2023-01-26T01:12:14;97425.88;;;2.47;50.15
52307;BME280;38249;48.920;12.882;2023-01-26T01:14:41;97429.50;;;2.36;50.33
52307;BME280;38249;48.920;12.882;2023-01-26T01:17:07;97435.09;;;2.35;50.52
52307;BME280;38249;48.920;12.882;2023-01-26T01:19:33;97431.91;;;2.38;49.86
52307;BME280;38249;48.920;12.882;2023-01-26T01:22:00;97431.66;;;2.39;50.00
52307;BME280;38249;48.920;12.882;2023-01-26T01:24:26;97423.75;;;2.44;50.48
52307;BME280;38249;48.920;12.882;2023-01-26T01:26:53;97424.03;;;2.48;49.45
52307;BME280;38249;48.920;12.882;2023-01-26T01:29:20;97416.09;;;2.53;50.13
52307;BME280;38249;48.920;12.882;2023-01-26T01:31:47;97418.13;;;2.41;49.75
52307;BME280;38249;48.920;12.882;2023-01-26T01:34:13;97428.22;;;2.39;50.11
52307;BME280;38249;48.920;12.882;2023-01-26T01:36:40;97421.84;;;2.40;50.23
52307;BME280;38249;48.920;12.882;2023-01-26T01:39:06;97422.09;;;2.38;50.06
52307;BME280;38249;48.920;12.882;2023-01-26T01:41:33;97414.16;;;2.43;49.69
52307;BME280;38249;48.920;12.882;2023-01-26T01:44:17;97421.47;;;2.58;49.39
52307;BME280;38249;48.920;12.882;2023-01-26T01:46:51;97418.50;;;2.55;49.37
52307;BME280;38249;48.920;12.882;2023-01-26T01:49:22;97416.81;;;2.43;49.49
52307;BME280;38249;48.920;12.882;2023-01-26T01:51:53;97417.88;;;2.42;50.05
52307;BME280;38249;48.920;12.882;2023-01-26T01:54:28;97414.19;;;2.48;49.86
52307;BME280;38249;48.920;12.882;2023-01-26T01:56:59;97411.53;;;2.48;49.84
52307;BME280;38249;48.920;12.882;2023-01-26T01:59:28;97405.06;;;2.39;49.33
52307;BME280;38249;48.920;12.882;2023-01-26T02:01:57;97405.19;;;2.49;49.51
52307;BME280;38249;48.920;12.882;2023-01-26T02:04:24;97409.94;;;2.47;49.59
52307;BME280;38249;48.920;12.882;2023-01-26T02:06:54;97399.00;;;2.44;49.95
52307;BME280;38249;48.920;12.882;2023-01-26T02:09:26;97404.31;;;2.44;49.99
52307;BME280;38249;48.920;12.882;2023-01-26T02:12:13;97401.63;;;2.39;49.99
52307;BME280;38249;48.920;12.882;2023-01-26T02:14:41;97405.03;;;2.34;49.33
52307;BME280;38249;48.920;12.882;2023-01-26T02:17:09;97395.59;;;2.48;49.59
52307;BME280;38249;48.920;12.882;2023-01-26T02:19:42;97387.13;;;2.51;49.18
52307;BME280;38249;48.920;12.882;2023-01-26T02:22:16;97392.44;;;2.51;49.72
52307;BME280;38249;48.920;12.882;2023-01-26T02:24:46;97385.34;;;2.30;49.38
52307;BME280;38249;48.920;12.882;2023-01-26T02:27:16;97383.56;;;2.41;49.40
52307;BME280;38249;48.920;12.882;2023-01-26T02:29:42;97385.63;;;2.33;49.42
52307;BME280;38249;48.920;12.882;2023-01-26T02:32:09;97382.13;;;2.28;49.63
52307;BME280;38249;48.920;12.882;2023-01-26T02:34:35;97378.16;;;2.30;48.86
52307;BME280;38249;48.920;12.882;2023-01-26T02:37:02;97373.13;;;2.34;49.76
52307;BME280;38249;48.920;12.882;2023-01-26T02:39:39;97373.03;;;2.51;48.96
52307;BME280;38249;48.920;12.882;2023-01-26T02:42:09;97368.91;;;2.33;49.55
52307;BME280;38249;48.920;12.882;2023-01-26T02:44:54;97372.84;;;2.30;49.81
52307;BME280;38249;48.920;12.882;2023-01-26T02:47:20;97365.75;;;2.09;49.61
52307;BME280;38249;48.920;12.882;2023-01-26T02:49:47;97366.47;;;1.99;50.00
52307;BME280;38249;48.920;12.882;2023-01-26T02:52:13;97362.22;;;2.03;49.72
52307;BME280;38249;48.920;12.882;2023-01-26T02:54:40;97356.13;;;2.03;49.46
52307;BME280;38249;48.920;12.882;2023-01-26T02:57:24;97359.44;;;2.15;49.30
52307;BME280;38249;48.920;12.882;2023-01-26T02:59:51;97356.00;;;2.20;49.45
52307;BME280;38249;48.920;12.882;2023-01-26T03:02:19;97354.53;;;2.34;49.29
52307;BME280;38249;48.920;12.882;2023-01-26T03:04:45;97357.91;;;2.24;49.65
52307;BME280;38249;48.920;12.882;2023-01-26T03:07:12;97351.78;;;2.24;49.05
52307;BME280;38249;48.920;12.882;2023-01-26T03:09:38;97347.56;;;2.28;49.00
52307;BME280;38249;48.920;12.882;2023-01-26T03:12:05;97344.16;;;2.32;49.29
52307;BME280;38249;48.920;12.882;2023-01-26T03:14:32;97343.41;;;2.37;49.39
52307;BME280;38249;48.920;12.882;2023-01-26T03:16:58;97345.25;;;2.37;49.47
52307;BME280;38249;48.920;12.882;2023-01-26T03:19:26;97351.88;;;2.34;49.32
52307;BME280;38249;48.920;12.882;2023-01-26T03:22:10;97335.16;;;2.06;49.29
52307;BME280;38249;48.920;12.882;2023-01-26T03:24:55;97342.88;;;2.08;49.35
52307;BME280;38249;48.920;12.882;2023-01-26T03:27:41;97337.34;;;2.14;48.84
52307;BME280;38249;48.920;12.882;2023-01-26T03:30:09;97342.41;;;2.16;49.26
52307;BME280;38249;48.920;12.882;2023-01-26T03:32:36;97341.59;;;2.10;48.91
52307;BME280;38249;48.920;12.882;2023-01-26T03:35:05;97333.47;;;2.27;49.16
52307;BME280;38249;48.920;12.882;2023-01-26T03:37:32;97334.94;;;2.13;48.61
52307;BME280;38249;48.920;12.882;2023-01-26T03:40:01;97341.88;;;2.14;48.86
52307;BME280;38249;48.920;12.882;2023-01-26T03:42:45;97340.78;;;2.42;48.73
52307;BME280;38249;48.920;12.882;2023-01-26T03:45:29;97336.56;;;2.14;49.47
52307;BME280;38249;48.920;12.882;2023-01-26T03:48:13;97333.00;;;2.03;49.45
52307;BME280;38249;48.920;12.882;2023-01-26T03:50:59;97326.22;;;2.18;49.12
52307;BME280;38249;48.920;12.882;2023-01-26T03:53:43;97335.16;;;2.06;49.68
52307;BME280;38249;48.920;12.882;2023-01-26T03:56:27;97328.50;;;2.04;49.63
52307;BME280;38249;48.920;12.882;2023-01-26T03:58:58;97330.47;;;2.13;49.96
52307;BME280;38249;48.920;12.882;2023-01-26T04:01:33;97334.66;;;2.09;49.99
52307;BME280;38249;48.920;12.882;2023-01-26T04:04:00;97336.16;;;2.00;50.36
52307;BME280;38249;48.920;12.882;2023-01-26T04:06:47;97329.69;;;2.18;49.78
52307;BME280;38249;48.920;12.882;2023-01-26T04:09:31;97324.06;;;2.14;49.91
52307;BME280;38249;48.920;12.882;2023-01-26T04:11:58;97315.22;;;2.04;49.96
52307;BME280;38249;48.920;12.882;2023-01-26T04:14:25;97313.91;;;2.06;50.40
52307;BME280;38249;48.920;12.882;2023-01-26T04:17:09;97312.34;;;2.10;50.45
52307;BME280;38249;48.920;12.882;2023-01-26T04:19:53;97318.00;;;2.19;50.41
52307;BME280;38249;48.920;12.882;2023-01-26T04:22:39;97304.56;;;2.36;49.69
52307;BME280;38249;48.920;12.882;2023-01-26T04:25:11;97312.50;;;2.31;50.11
52307;BME280;38249;48.920;12.882;2023-01-26T04:27:38;97308.72;;;2.22;50.10
52307;BME280;38249;48.920;12.882;2023-01-26T04:30:06;97312.44;;;2.21;50.35
52307;BME280;38249;48.920;12.882;2023-01-26T04:32:33;97312.31;;;2.05;50.79
52307;BME280;38249;48.920;12.882;2023-01-26T04:34:59;97307.81;;;2.06;50.38
52307;BME280;38249;48.920;12.882;2023-01-26T04:37:26;97307.31;;;2.09;50.38
52307;BME280;38249;48.920;12.882;2023-01-26T04:39:54;97301.56;;;2.22;50.49
52307;BME280;38249;48.920;12.882;2023-01-26T04:42:20;97305.44;;;2.09;51.04
52307;BME280;38249;48.920;12.882;2023-01-26T04:44:48;97297.50;;;2.14;50.17
52307;BME280;38249;48.920;12.882;2023-01-26T04:47:15;97299.66;;;2.18;50.07
52307;BME280;38249;48.920;12.882;2023-01-26T04:49:42;97295.97;;;2.24;50.76
52307;BME280;38249;48.920;12.882;2023-01-26T04:52:08;97299.72;;;2.28;50.50
52307;BME280;38249;48.920;12.882;2023-01-26T04:54:35;97293.66;;;2.32;50.83
52307;BME280;38249;48.920;12.882;2023-01-26T04:57:03;97290.25;;;2.42;50.18
52307;BME280;38249;48.920;12.882;2023-01-26T04:59:29;97292.56;;;2.28;50.84
52307;BME280;38249;48.920;12.882;2023-01-26T05:01:56;97292.81;;;2.27;50.23
52307;BME280;38249;48.920;12.882;2023-01-26T05:04:22;97294.88;;;2.20;50.59
52307;BME280;38249;48.920;12.882;2023-01-26T05:06:49;97298.66;;;2.24;50.49
52307;BME280;38249;48.920;12.882;2023-01-26T05:09:16;97300.50;;;2.23;50.56
52307;BME280;38249;48.920;12.882;2023-01-26T05:11:42;97299.16;;;2.21;50.36
52307;BME280;38249;48.920;12.882;2023-01-26T05:14:10;97298.97;;;2.32;50.28
52307;BME280;38249;48.920;12.882;2023-01-26T05:16:36;97303.97;;;2.24;50.13
52307;BME280;38249;48.920;12.882;2023-01-26T05:19:03;97306.38;;;2.25;49.94
52307;BME280;38249;48.920;12.882;2023-01-26T05:21:29;97308.78;;;2.27;50.08
52307;BME280;38249;48.920;12.882;2023-01-26T05:23:56;97311.47;;;2.32;51.00
52307;BME280;38249;48.920;12.882;2023-01-26T05:26:22;97305.09;;;2.33;50.92
52307;BME280;38249;48.920;12.882;2023-01-26T05:28:49;97302.47;;;2.38;50.72
52307;BME280;38249;48.920;12.882;2023-01-26T05:31:17;97301.75;;;2.48;50.57
52307;BME280;38249;48.920;12.882;2023-01-26T05:33:43;97298.72;;;2.34;50.92
52307;BME280;38249;48.920;12.882;2023-01-26T05:36:10;97297.66;;;2.35;50.49
52307;BME280;38249;48.920;12.882;2023-01-26T05:38:36;97298.19;;;2.37;50.52
52307;BME280;38249;48.920;12.882;2023-01-26T05:41:05;97299.66;;;2.55;50.77
52307;BME280;38249;48.920;12.882;2023-01-26T05:43:31;97302.25;;;2.45;50.80
52307;BME280;38249;48.920;12.882;2023-01-26T05:45:58;97301.50;;;2.49;50.22
52307;BME280;38249;48.920;12.882;2023-01-26T05:48:26;97298.63;;;2.61;49.87
52307;BME280;38249;48.920;12.882;2023-01-26T05:50:54;97296.97;;;2.50;50.52
52307;BME280;38249;48.920;12.882;2023-01-26T05:53:21;97303.53;;;2.37;50.07
52307;BME280;38249;48.920;12.882;2023-01-26T05:55:48;97297.63;;;2.30;49.77
52307;BME280;38249;48.920;12.882;2023-01-26T05:58:14;97303.38;;;2.17;50.08
52307;BME280;38249;48.920;12.882;2023-01-26T06:00:41;97303.66;;;2.20;50.76
52307;BME280;38249;48.920;12.882;2023-01-26T06:03:07;97296.03;;;2.29;50.74
52307;BME280;38249;48.920;12.882;2023-01-26T06:05:35;97286.81;;;2.42;50.90
52307;BME280;38249;48.920;12.882;2023-01-26T06:08:03;97295.00;;;2.35;50.76
52307;BME280;38249;48.920;12.882;2023-01-26T06:10:29;97282.78;;;2.39;51.12
52307;BME280;38249;48.920;12.882;2023-01-26T06:12:56;97283.34;;;2.41;50.42
52307;BME280;38249;48.920;12.882;2023-01-26T06:15:23;97283.09;;;2.43;51.04
52307;BME280;38249;48.920;12.882;2023-01-26T06:17:50;97284.91;;;2.37;50.37
52307;BME280;38249;48.920;12.882;2023-01-26T06:20:16;97286.78;;;2.37;50.76
52307;BME280;38249;48.920;12.882;2023-01-26T06:22:44;97290.19;;;2.32;51.27
52307;BME280;38249;48.920;12.882;2023-01-26T06:25:11;97287.81;;;1.98;51.17
52307;BME280;38249;48.920;12.882;2023-01-26T06:27:37;97287.72;;;1.88;51.32
52307;BME280;38249;48.920;12.882;2023-01-26T06:30:07;97288.97;;;1.80;51.49
52307;BME280;38249;48.920;12.882;2023-01-26T06:32:34;97288.03;;;1.64;51.71
52307;BME280;38249;48.920;12.882;2023-01-26T06:35:01;97286.13;;;1.59;52.33
52307;BME280;38249;48.920;12.882;2023-01-26T06:37:30;97289.38;;;1.39;52.93
52307;BME280;38249;48.920;12.882;2023-01-26T06:39:59;97289.34;;;1.62;52.32
52307;BME280;38249;48.920;12.882;2023-01-26T06:42:25;97299.34;;;1.54;52.60
52307;BME280;38249;48.920;12.882;2023-01-26T06:44:52;97297.31;;;1.62;52.46
52307;BME280;38249;48.920;12.882;2023-01-26T06:47:18;97300.75;;;1.62;51.65
52307;BME280;38249;48.920;12.882;2023-01-26T06:49:45;97295.91;;;1.54;52.29
52307;BME280;38249;48.920;12.882;2023-01-26T06:52:21;97294.66;;;1.62;53.21
52307;BME280;38249;48.920;12.882;2023-01-26T06:54:52;97300.47;;;1.36;52.96
52307;BME280;38249;48.920;12.882;2023-01-26T06:57:20;97296.63;;;1.49;52.71
52307;BME280;38249;48.920;12.882;2023-01-26T06:59:46;97299.03;;;1.51;52.39
52307;BME280;38249;48.920;12.882;2023-01-26T07:02:16;97302.00;;;1.82;52.02
52307;BME280;38249;48.920;12.882;2023-01-26T07:04:44;97300.63;;;1.79;51.92
52307;BME280;38249;48.920;12.882;2023-01-26T07:07:11;97303.91;;;1.86;51.22
52307;BME280;38249;48.920;12.882;2023-01-26T07:09:37;97285.66;;;1.95;51.84
52307;BME280;38249;48.920;12.882;2023-01-26T07:12:04;97291.31;;;2.04;51.63
52307;BME280;38249;48.920;12.882;2023-01-26T07:14:32;97294.84;;;2.14;51.38
52307;BME280;38249;48.920;12.882;2023-01-26T07:16:59;97289.75;;;2.08;51.67
52307;BME280;38249;48.920;12.882;2023-01-26T07:19:25;97287.13;;;2.13;51.17
52307;BME280;38249;48.920;12.882;2023-01-26T07:21:54;97288.50;;;2.21;51.87
52307;BME280;38249;48.920;12.882;2023-01-26T07:24:21;97294.88;;;2.20;51.11
52307;BME280;38249;48.920;12.882;2023-01-26T07:26:47;97295.69;;;2.20;51.73
52307;BME280;38249;48.920;12.882;2023-01-26T07:29:14;97289.81;;;2.18;50.80
52307;BME280;38249;48.920;12.882;2023-01-26T07:31:42;97294.16;;;2.29;50.90
52307;BME280;38249;48.920;12.882;2023-01-26T07:34:09;97294.34;;;2.18;51.43
52307;BME280;38249;48.920;12.882;2023-01-26T07:36:35;97297.00;;;2.18;50.78
52307;BME280;38249;48.920;12.882;2023-01-26T07:39:02;97290.09;;;2.17;51.16
52307;BME280;38249;48.920;12.882;2023-01-26T07:41:30;97289.53;;;2.14;51.14
52307;BME280;38249;48.920;12.882;2023-01-26T07:43:56;97287.34;;;2.06;50.84
52307;BME280;38249;48.920;12.882;2023-01-26T07:46:23;97282.53;;;2.03;51.18
52307;BME280;38249;48.920;12.882;2023-01-26T07:48:51;97283.16;;;2.16;51.67
52307;BME280;38249;48.920;12.882;2023-01-26T07:51:18;97283.09;;;2.05;51.48
52307;BME280;38249;48.920;12.882;2023-01-26T07:53:44;97283.09;;;2.05;50.87
52307;BME280;38249;48.920;12.882;2023-01-26T07:56:15;97289.38;;;2.26;51.20
52307;BME280;38249;48.920;12.882;2023-01-26T07:58:48;97282.53;;;2.41;51.03
52307;BME280;38249;48.920;12.882;2023-01-26T08:01:14;97273.44;;;2.26;50.66
52307;BME280;38249;48.920;12.882;2023-01-26T08:03:41;97281.47;;;2.37;50.66
52307;BME280;38249;48.920;12.882;2023-01-26T08:06:11;97278.59;;;2.48;51.49
52307;BME280;38249;48.920;12.882;2023-01-26T08:08:38;97273.00;;;2.45;50.93
52307;BME280;38249;48.920;12.882;2023-01-26T08:11:06;97277.53;;;2.44;50.40
52307;BME280;38249;48.920;12.882;2023-01-26T08:13:33;97281.06;;;2.18;50.44
52307;BME280;38249;48.920;12.882;2023-01-26T08:16:00;97288.31;;;2.27;51.05
52307;BME280;38249;48.920;12.882;2023-01-26T08:18:28;97281.09;;;2.23;50.32
52307;BME280;38249;48.920;12.882;2023-01-26T08:20:54;97277.91;;;2.26;50.80
52307;BME280;38249;48.920;12.882;2023-01-26T08:23:22;97277.97;;;2.36;51.01
52307;BME280;38249;48.920;12.882;2023-01-26T08:25:49;97272.84;;;2.24;50.62
52307;BME280;38249;48.920;12.882;2023-01-26T08:28:15;97272.34;;;2.27;51.16
52307;BME280;38249;48.920;12.882;2023-01-26T08:30:42;97271.34;;;2.33;50.67
52307;BME280;38249;48.920;12.882;2023-01-26T08:33:09;97272.97;;;2.40;51.30
52307;BME280;38249;48.920;12.882;2023-01-26T08:35:35;97270.31;;;2.40;50.42
52307;BME280;38249;48.920;12.882;2023-01-26T08:38:03;97266.34;;;2.47;50.55
52307;BME280;38249;48.920;12.882;2023-01-26T08:40:30;97260.78;;;2.49;51.07
52307;BME280;38249;48.920;12.882;2023-01-26T08:42:59;97262.16;;;2.51;51.00
52307;BME280;38249;48.920;12.882;2023-01-26T08:45:25;97269.25;;;2.41;50.57
52307;BME280;38249;48.920;12.882;2023-01-26T08:47:52;97264.25;;;2.44;50.76
52307;BME280;38249;48.920;12.882;2023-01-26T08:50:19;97254.69;;;2.48;50.28
52307;BME280;38249;48.920;12.882;2023-01-26T08:52:45;97268.22;;;2.47;50.35
52307;BME280;38249;48.920;12.882;2023-01-26T08:55:12;97264.25;;;2.49;50.66
52307;BME280;38249;48.920;12.882;2023-01-26T08:57:39;97266.22;;;2.64;50.31
52307;BME280;38249;48.920;12.882;2023-01-26T09:00:07;97267.25;;;2.63;50.72
52307;BME280;38249;48.920;12.882;2023-01-26T09:02:33;97268.28;;;2.57;50.43
52307;BME280;38249;48.920;12.882;2023-01-26T09:05:00;97263.53;;;2.59;50.25
52307;BME280;38249;48.920;12.882;2023-01-26T09:07:26;97266.22;;;2.64;50.49
52307;BME280;38249;48.920;12.882;2023-01-26T09:09:53;97263.84;;;2.68;50.46
52307;BME280;38249;48.920;12.882;2023-01-26T09:12:20;97271.28;;;2.71;50.64
52307;BME280;38249;48.920;12.882;2023-01-26T09:14:47;97269.78;;;2.85;50.01
52307;BME280;38249;48.920;12.882;2023-01-26T09:17:14;97272.91;;;2.72;49.98
52307;BME280;38249;48.920;12.882;2023-01-26T09:19:43;97268.63;;;2.71;49.45
52307;BME280;38249;48.920;12.882;2023-01-26T09:22:09;97272.34;;;2.70;50.52
52307;BME280;38249;48.920;12.882;2023-01-26T09:24:36;97267.59;;;2.72;49.92
52307;BME280;38249;48.920;12.882;2023-01-26T09:27:02;97273.75;;;2.83;50.35
52307;BME280;38249;48.920;12.882;2023-01-26T09:29:29;97275.06;;;2.80;49.71
52307;BME280;38249;48.920;12.882;2023-01-26T09:31:57;97272.69;;;2.84;49.99
52307;BME280;38249;48.920;12.882;2023-01-26T09:34:23;97267.75;;;2.55;49.79
52307;BME280;38249;48.920;12.882;2023-01-26T09:36:50;97267.94;;;2.43;49.70
52307;BME280;38249;48.920;12.882;2023-01-26T09:39:17;97270.28;;;2.35;49.79
52307;BME280;38249;48.920;12.882;2023-01-26T09:41:51;97272.25;;;2.49;50.17
52307;BME280;38249;48.920;12.882;2023-01-26T09:44:23;97266.94;;;2.49;50.15
52307;BME280;38249;48.920;12.882;2023-01-26T09:46:59;97277.06;;;2.53;50.07
52307;BME280;38249;48.920;12.882;2023-01-26T09:49:30;97265.53;;;2.42;50.21
52307;BME280;38249;48.920;12.882;2023-01-26T09:52:05;97274.00;;;2.33;50.23
52307;BME280;38249;48.920;12.882;2023-01-26T09:54:37;97264.78;;;2.46;49.84
52307;BME280;38249;48.920;12.882;2023-01-26T09:57:11;97256.84;;;2.57;50.62
52307;BME280;38249;48.920;12.882;2023-01-26T09:59:43;97249.16;;;2.60;50.02
52307;BME280;38249;48.920;12.882;2023-01-26T10:02:22;97254.25;;;2.67;50.50
52307;BME280;38249;48.920;12.882;2023-01-26T10:04:57;97253.44;;;2.61;50.71
52307;BME280;38249;48.920;12.882;2023-01-26T10:07:25;97253.63;;;2.49;50.30
52307;BME280;38249;48.920;12.882;2023-01-26T10:09:52;97249.34;;;2.43;50.18
52307;BME280;38249;48.920;12.882;2023-01-26T10:12:22;97242.25;;;2.59;50.05
52307;BME280;38249;48.920;12.882;2023-01-26T10:14:51;97239.63;;;2.64;50.04
52307;BME280;38249;48.920;12.882;2023-01-26T10:17:24;97240.16;;;2.72;49.79
52307;BME280;38249;48.920;12.882;2023-01-26T10:19:57;97227.38;;;2.68;49.67
52307;BME280;38249;48.920;12.882;2023-01-26T10:22:30;97237.53;;;2.77;49.06
52307;BME280;38249;48.920;12.882;2023-01-26T10:24:59;97226.84;;;2.61;50.01
52307;BME280;38249;48.920;12.882;2023-01-26T10:27:26;97228.97;;;2.64;49.43
52307;BME280;38249;48.920;12.882;2023-01-26T10:29:53;97228.13;;;2.54;49.96
52307;BME280;38249;48.920;12.882;2023-01-26T10:32:21;97223.41;;;2.66;49.36
52307;BME280;38249;48.920;12.882;2023-01-26T10:34:48;97229.44;;;2.51;49.37
52307;BME280;38249;48.920;12.882;2023-01-26T10:37:22;97226.28;;;2.59;49.46
52307;BME280;38249;48.920;12.882;2023-01-26T10:39:58;97229.78;;;2.65;49.18
52307;BME280;38249;48.920;12.882;2023-01-26T10:42:27;97228.44;;;2.62;49.32
52307;BME280;38249;48.920;12.882;2023-01-26T10:44:54;97219.38;;;2.58;49.76
52307;BME280;38249;48.920;12.882;2023-01-26T10:47:22;97219.13;;;2.60;49.92
52307;BME280;38249;48.920;12.882;2023-01-26T10:49:50;97223.06;;;2.52;49.51
52307;BME280;38249;48.920;12.882;2023-01-26T10:52:18;97217.22;;;2.55;49.03
52307;BME280;38249;48.920;12.882;2023-01-26T10:54:46;97213.78;;;2.55;49.55
52307;BME280;38249;48.920;12.882;2023-01-26T10:57:16;97215.16;;;2.62;49.21
52307;BME280;38249;48.920;12.882;2023-01-26T10:59:49;97208.81;;;2.74;49.53
52307;BME280;38249;48.920;12.882;2023-01-26T11:02:21;97212.78;;;2.71;49.22
52307;BME280;38249;48.920;12.882;2023-01-26T11:05:12;97213.56;;;2.72;49.35
52307;BME280;38249;48.920;12.882;2023-01-26T11:07:40;97206.59;;;2.55;49.67
52307;BME280;38249;48.920;12.882;2023-01-26T11:10:24;97209.06;;;2.72;49.89
52307;BME280;38249;48.920;12.882;2023-01-26T11:13:06;97209.84;;;2.62;50.33
52307;BME280;38249;48.920;12.882;2023-01-26T11:15:36;97211.28;;;2.38;50.53
52307;BME280;38249;48.920;12.882;2023-01-26T11:18:12;97208.94;;;2.46;50.37
52307;BME280;38249;48.920;12.882;2023-01-26T11:20:49;97208.19;;;2.51;50.14
52307;BME280;38249;48.920;12.882;2023-01-26T11:23:27;97202.28;;;2.44;50.00
52307;BME280;38249;48.920;12.882;2023-01-26T11:26:14;97202.34;;;2.54;50.52
52307;BME280;38249;48.920;12.882;2023-01-26T11:28:51;97199.16;;;2.57;49.96
52307;BME280;38249;48.920;12.882;2023-01-26T11:31:31;97204.66;;;2.40;50.20
52307;BME280;38249;48.920;12.882;2023-01-26T11:34:07;97204.38;;;2.37;50.17
52307;BME280;38249;48.920;12.882;2023-01-26T11:36:46;97201.94;;;2.30;50.14
52307;BME280;38249;48.920;12.882;2023-01-26T11:39:19;97198.72;;;2.28;50.46
52307;BME280;38249;48.920;12.882;2023-01-26T11:41:59;97189.72;;;2.29;50.54
52307;BME280;38249;48.920;12.882;2023-01-26T11:44:53;97196.94;;;2.39;50.31
52307;BME280;38249;48.920;12.882;2023-01-26T11:47:39;97194.00;;;2.35;50.68
52307;BME280;38249;48.920;12.882;2023-01-26T11:50:19;97190.16;;;2.16;50.87
52307;BME280;38249;48.920;12.882;2023-01-26T11:53:00;97192.34;;;2.24;50.76
52307;BME280;38249;48.920;12.882;2023-01-26T11:55:40;97185.63;;;2.16;51.20
52307;BME280;38249;48.920;12.882;2023-01-26T11:58:23;97185.72;;;2.26;50.76
52307;BME280;38249;48.920;12.882;2023-01-26T12:00:55;97180.31;;;2.16;51.05
52307;BME280;38249;48.920;12.882;2023-01-26T12:03:28;97183.72;;;2.06;50.91
52307;BME280;38249;48.920;12.882;2023-01-26T12:05:59;97178.16;;;2.08;51.09
52307;BME280;38249;48.920;12.882;2023-01-26T12:08:33;97179.03;;;2.19;51.31
52307;BME280;38249;48.920;12.882;2023-01-26T12:11:07;97175.88;;;2.27;51.02
52307;BME280;38249;48.920;12.882;2023-01-26T12:14:06;97163.50;;;2.48;51.14
52307;BME280;38249;48.920;12.882;2023-01-26T12:16:46;97153.41;;;2.55;50.60
52307;BME280;38249;48.920;12.882;2023-01-26T12:19:29;97145.69;;;2.59;50.49
52307;BME280;38249;48.920;12.882;2023-01-26T12:22:02;97146.25;;;2.61;50.02
52307;BME280;38249;48.920;12.882;2023-01-26T12:24:37;97145.75;;;2.69;49.99
52307;BME280;38249;48.920;12.882;2023-01-26T12:27:10;97147.59;;;2.63;50.83
52307;BME280;38249;48.920;12.882;2023-01-26T12:29:45;97136.44;;;2.66;49.93
52307;BME280;38249;48.920;12.882;2023-01-26T12:32:13;97129.47;;;2.55;50.60
52307;BME280;38249;48.920;12.882;2023-01-26T12:34:41;97134.28;;;2.58;50.62
52307;BME280;38249;48.920;12.882;2023-01-26T12:37:24;97131.44;;;2.80;50.02
52307;BME280;38249;48.920;12.882;2023-01-26T12:40:03;97127.16;;;2.69;49.66
52307;BME280;38249;48.920;12.882;2023-01-26T12:42:41;97133.25;;;2.75;49.60
52307;BME280;38249;48.920;12.882;2023-01-26T12:45:13;97131.69;;;2.79;49.54
52307;BME280;38249;48.920;12.882;2023-01-26T12:48:10;97132.22;;;2.81;50.04
52307;BME280;38249;48.920;12.882;2023-01-26T12:50:46;97131.41;;;2.75;50.01
52307;BME280;38249;48.920;12.882;2023-01-26T12:53:17;97127.69;;;2.71;50.21
52307;BME280;38249;48.920;12.882;2023-01-26T12:55:49;97127.44;;;2.78;49.88
52307;BME280;38249;48.920;12.882;2023-01-26T12:58:20;97131.13;;;2.77;50.00
52307;BME280;38249;48.920;12.882;2023-01-26T13:00:55;97125.84;;;2.82;49.67
52307;BME280;38249;48.920;12.882;2023-01-26T13:03:28;97123.72;;;2.79;49.74
52307;BME280;38249;48.920;12.882;2023-01-26T13:05:59;97123.41;;;2.75;50.41
52307;BME280;38249;48.920;12.882;2023-01-26T13:08:48;97117.88;;;2.92;49.51
52307;BME280;38249;48.920;12.882;2023-01-26T13:11:42;97123.19;;;2.87;49.81
52307;BME280;38249;48.920;12.882;2023-01-26T13:14:30;97121.59;;;2.81;49.63
52307;BME280;38249;48.920;12.882;2023-01-26T13:16:57;97118.84;;;2.55;49.21